createdAt,value
2023-04-01T00:00:40.291Z,98961.15
2023-04-01T00:06:05.783Z,98960.45
2023-04-01T00:11:38.137Z,98960.41
2023-04-01T00:17:00.479Z,98957.22
2023-04-01T00:22:23.527Z,98952.16
2023-04-01T00:27:45.980Z,98948.64
2023-04-01T00:33:10.508Z,98951.48
2023-04-01T00:38:33.279Z,98949.92
2023-04-01T00:43:57.381Z,98948.39
2023-04-01T00:49:20.294Z,98942.19
2023-04-01T00:54:44.880Z,98943.16
2023-04-01T01:00:09.096Z,98942.05
2023-04-01T01:05:46.316Z,98944.34
2023-04-01T01:11:03.194Z,98941.09
2023-04-01T01:16:48.495Z,98935.09
2023-04-01T01:22:52.222Z,98928.36
2023-04-01T01:28:57.294Z,98934.98
2023-04-01T01:34:34.170Z,98937.27
2023-04-01T01:40:02.978Z,98942.77
2023-04-01T01:45:29.504Z,98938.69
2023-04-01T01:50:55.163Z,98943.49
2023-04-01T01:56:18.370Z,98938.17
2023-04-01T02:01:45.549Z,98937.75
2023-04-01T02:07:33.590Z,98934.83
2023-04-01T02:13:09.481Z,98941.95
2023-04-01T02:18:32.783Z,98945.38
2023-04-01T02:23:56.111Z,98937.62
2023-04-01T02:29:21.445Z,98945.09
2023-04-01T02:34:44.797Z,98936.80
2023-04-01T02:40:11.267Z,98943.43
2023-04-01T02:45:34.853Z,98944.69
2023-04-01T02:50:57.876Z,98953.00
2023-04-01T02:56:21.303Z,98953.44
2023-04-01T03:01:43.720Z,98957.95
2023-04-01T03:07:06.196Z,98959.05
2023-04-01T03:12:28.427Z,98966.95
2023-04-01T03:17:52.867Z,98972.30
2023-04-01T03:23:15.286Z,98980.03
2023-04-01T03:28:37.538Z,98983.26
2023-04-01T03:34:00.475Z,98986.63
2023-04-01T03:39:23.276Z,98987.75
2023-04-01T03:44:46.461Z,98985.91
2023-04-01T03:50:08.945Z,99000.94
2023-04-01T03:55:31.929Z,99003.05
2023-04-01T04:00:56.302Z,98995.17
2023-04-01T04:06:19.741Z,99006.84
2023-04-01T04:11:44.172Z,99010.73
2023-04-01T04:17:07.289Z,99020.14
2023-04-01T04:22:29.560Z,99029.95
2023-04-01T04:27:52.773Z,99032.82
2023-04-01T04:33:15.102Z,99035.77
2023-04-01T04:38:38.503Z,99040.92
2023-04-01T04:44:06.804Z,99044.98
2023-04-01T04:49:29.134Z,99054.81
2023-04-01T04:54:51.402Z,99053.51
2023-04-01T05:00:14.767Z,99069.32
2023-04-01T05:05:37.036Z,99066.02
2023-04-01T05:10:59.403Z,99076.18
2023-04-01T05:16:25.312Z,99083.06
2023-04-01T05:21:47.669Z,99083.12
2023-04-01T05:27:10.465Z,99097.73
2023-04-01T05:32:32.702Z,99101.60
2023-04-01T05:37:55.585Z,99106.93
2023-04-01T05:43:18.666Z,99106.97
2023-04-01T05:48:41.604Z,99113.02
2023-04-01T05:54:04.068Z,99110.22
2023-04-01T05:59:26.508Z,99116.91
2023-04-01T06:04:54.152Z,99115.22
2023-04-01T06:10:27.584Z,99122.38
2023-04-01T06:16:00.757Z,99123.93
2023-04-01T06:21:47.169Z,99131.92
2023-04-01T06:27:32.834Z,99138.91
2023-04-01T06:33:21.471Z,99140.02
2023-04-01T06:39:12.477Z,99139.14
2023-04-01T06:50:50.462Z,99153.67
2023-04-01T06:56:26.470Z,99159.18
2023-04-01T07:01:53.687Z,99167.50
2023-04-01T07:07:29.280Z,99174.42
2023-04-01T07:13:08.295Z,99171.36
2023-04-01T07:18:40.982Z,99183.01
2023-04-01T07:24:07.413Z,99201.31
2023-04-01T07:29:31.202Z,99208.44
2023-04-01T07:35:14.094Z,99201.09
2023-04-01T07:40:53.491Z,99217.23
2023-04-01T07:46:31.336Z,99212.73
2023-04-01T07:52:32.203Z,99221.48
2023-04-01T07:58:02.283Z,99225.98
2023-04-01T08:03:34.112Z,99236.66
2023-04-01T08:09:09.931Z,99244.67
2023-04-01T08:14:54.109Z,99257.77
2023-04-01T08:20:24.663Z,99270.02
2023-04-01T08:25:51.764Z,99272.80
2023-04-01T08:31:27.815Z,99281.25
2023-04-01T08:36:55.520Z,99286.58
2023-04-01T08:42:40.800Z,99285.83
2023-04-01T08:48:27.187Z,99285.70
2023-04-01T08:54:15.518Z,99289.08
2023-04-01T09:00:18.499Z,99303.20
2023-04-01T09:22:51.065Z,99329.39
2023-04-01T09:28:18.310Z,99339.27
2023-04-01T09:34:04.844Z,99342.25
2023-04-01T09:39:46.775Z,99339.77
2023-04-01T09:45:24.023Z,99355.16
2023-04-01T09:57:42.349Z,99371.43
2023-04-01T10:03:35.855Z,99368.28
2023-04-01T10:09:54.948Z,99377.80
2023-04-01T10:15:46.695Z,99383.94
2023-04-01T10:21:32.314Z,99389.70
2023-04-01T10:27:32.466Z,99394.55
2023-04-01T10:33:06.326Z,99398.33
2023-04-01T10:38:42.410Z,99399.73
2023-04-01T10:44:27.813Z,99400.20
2023-04-01T10:50:18.597Z,99406.11
2023-04-01T10:56:16.400Z,99403.70
2023-04-01T11:02:03.942Z,99419.28
2023-04-01T11:08:06.150Z,99422.12
2023-04-01T11:13:50.653Z,99432.81
2023-04-01T11:19:45.209Z,99434.37
2023-04-01T11:25:21.360Z,99442.06
2023-04-01T11:31:12.133Z,99449.64
2023-04-01T11:37:15.548Z,99460.25
2023-04-01T11:42:54.392Z,99469.95
2023-04-01T11:48:44.935Z,99474.73
2023-04-01T11:54:46.346Z,99472.00
2023-04-01T12:00:57.046Z,99481.00
2023-04-01T12:06:51.242Z,99485.58
2023-04-01T12:12:30.162Z,99491.16
2023-04-01T12:18:22.637Z,99502.75
2023-04-01T12:24:15.782Z,99494.29
2023-04-01T12:30:07.737Z,99504.97
2023-04-01T12:36:03.940Z,99517.98
2023-04-01T12:42:03.044Z,99521.86
2023-04-01T12:47:39.662Z,99530.39
2023-04-01T12:53:26.166Z,99533.42
2023-04-01T12:59:24.858Z,99538.07
2023-04-01T13:05:00.609Z,99540.83
2023-04-01T13:10:53.782Z,99557.38
2023-04-01T13:16:22.582Z,99558.71
2023-04-01T13:22:28.252Z,99577.72
2023-04-01T13:28:01.367Z,99578.23
2023-04-01T13:33:45.772Z,99584.42
2023-04-01T13:39:24.602Z,99599.38
2023-04-01T13:45:26.252Z,99599.38
2023-04-01T13:51:21.641Z,99599.03
2023-04-01T13:57:08.341Z,99606.05
2023-04-01T14:03:26.454Z,99620.03
2023-04-01T14:09:45.624Z,99625.85
2023-04-01T14:15:43.074Z,99638.69
2023-04-01T14:21:30.883Z,99643.55
2023-04-01T14:27:31.477Z,99652.39
2023-04-01T14:33:30.342Z,99668.01
2023-04-01T14:39:24.694Z,99658.18
2023-04-01T14:45:11.383Z,99668.59
2023-04-01T14:50:39.155Z,99673.94
2023-04-01T14:56:06.653Z,99687.72
2023-04-01T15:01:43.831Z,99700.56
2023-04-01T15:07:40.131Z,99698.04
2023-04-01T15:13:13.534Z,99715.00
2023-04-01T15:18:55.845Z,99719.86
2023-04-01T15:24:49.745Z,99734.27
2023-04-01T15:30:56.761Z,99743.34
2023-04-01T15:36:41.659Z,99753.72
2023-04-01T15:42:42.588Z,99768.94
2023-04-01T15:48:28.463Z,99772.14
2023-04-01T15:54:14.622Z,99783.13
2023-04-01T15:59:50.614Z,99774.41
2023-04-01T16:05:46.054Z,99793.13
2023-04-01T16:11:42.404Z,99795.03
2023-04-01T16:17:53.478Z,99816.84
2023-04-01T16:23:32.333Z,99818.20
2023-04-01T16:29:18.406Z,99838.89
2023-04-01T16:35:04.082Z,99846.44
2023-04-01T16:40:46.260Z,99858.42
2023-04-01T16:46:42.799Z,99866.99
2023-04-01T16:52:18.496Z,99878.12
2023-04-01T16:58:04.926Z,99885.65
2023-04-01T17:03:37.989Z,99890.22
2023-04-01T17:09:14.040Z,99897.91
2023-04-01T17:15:15.209Z,99903.11
2023-04-01T17:21:09.635Z,99918.39
2023-04-01T17:26:51.668Z,99917.73
2023-04-01T17:32:58.235Z,99938.50
2023-04-01T17:38:46.286Z,99945.72
2023-04-01T17:44:22.437Z,99960.02
2023-04-01T17:50:17.150Z,99965.91
2023-04-01T17:56:07.991Z,99975.84
2023-04-01T18:01:56.441Z,99985.80
2023-04-01T18:08:03.247Z,99992.19
2023-04-01T18:13:57.482Z,99999.96
2023-04-01T18:19:26.811Z,100017.70
2023-04-01T18:25:04.305Z,100014.52
2023-04-01T18:30:37.664Z,100016.42
2023-04-01T18:36:17.912Z,100029.59
2023-04-01T18:42:20.975Z,100033.05
2023-04-01T18:54:06.409Z,100052.49
2023-04-01T18:59:34.287Z,100060.27
2023-04-01T19:05:22.307Z,100078.27
2023-04-01T19:11:15.629Z,100075.19
2023-04-01T19:16:57.024Z,100084.27
2023-04-01T19:22:59.826Z,100091.29
2023-04-01T19:28:56.784Z,100106.36
2023-04-01T19:34:36.030Z,100109.25
2023-04-01T19:40:26.381Z,100118.33
2023-04-01T19:45:53.525Z,100123.09
2023-04-01T19:51:26.829Z,100142.42
2023-04-01T19:57:26.981Z,100146.50
2023-04-01T20:03:03.505Z,100143.39
2023-04-01T20:09:06.565Z,100157.72
2023-04-01T20:14:52.399Z,100161.70
2023-04-01T20:20:24.027Z,100177.48
2023-04-01T20:25:47.969Z,100174.74
2023-04-01T20:31:36.630Z,100182.91
2023-04-01T20:37:26.991Z,100200.63
2023-04-01T20:42:57.164Z,100190.82
2023-04-01T20:48:42.823Z,100199.69
2023-04-01T20:54:44.408Z,100205.79
2023-04-01T21:00:32.845Z,100207.03
2023-04-01T21:06:31.868Z,100208.49
2023-04-01T21:12:35.271Z,100210.07
2023-04-01T21:18:39.985Z,100210.16
2023-04-01T21:24:22.083Z,100225.90
2023-04-01T21:30:01.409Z,100235.01
2023-04-01T21:35:38.047Z,100241.20
2023-04-01T21:41:29.773Z,100241.25
2023-04-01T21:47:18.984Z,100252.20
2023-04-01T21:52:51.172Z,100253.56
2023-04-01T21:58:56.271Z,100256.09
2023-04-01T22:04:37.704Z,100255.31
2023-04-01T22:10:20.006Z,100257.89
2023-04-01T22:16:12.420Z,100263.96
2023-04-01T22:22:03.091Z,100264.44
2023-04-01T22:28:00.397Z,100273.34
2023-04-01T22:33:54.712Z,100275.67
2023-04-01T22:39:43.432Z,100287.19
2023-04-01T22:45:49.786Z,100297.66
2023-04-01T22:51:36.100Z,100307.00
2023-04-01T22:57:24.357Z,100306.68
2023-04-01T23:03:13.060Z,100314.51
2023-04-01T23:09:04.553Z,100306.68
2023-04-01T23:14:52.403Z,100324.30
2023-04-01T23:20:48.351Z,100327.81
2023-04-01T23:26:27.755Z,100327.11
2023-04-01T23:32:05.864Z,100341.07
2023-04-01T23:37:29.985Z,100345.52
2023-04-01T23:42:59.988Z,100347.31
2023-04-01T23:48:17.952Z,100362.44
2023-04-01T23:53:48.813Z,100366.11
2023-04-01T23:59:12.613Z,100380.22
